Time;durP1;ratioP1;P1;durP2;ratioP2;P2;SDS_P1;SDS_P2;PMS_P1;PMS_P2;Temp;Humidity;BMP_temperature;BMP_pressure;BME280_temperature;BME280_humidity;BME280_pressure;Samples;Min_cycle;Max_cycle;Signal;HPM_P1;HPM_P2
2022/10/02 00:01:18;;;;;;;0.10;0.10;;;10.00;99.90;;;;;;4966351;28;20201;-76
2022/10/02 00:03:48;;;;;;;0.10;0.10;;;9.90;99.90;;;;;;4984662;28;20233;-76
2022/10/02 00:06:22;;;;;;;0.10;0.10;;;9.90;99.90;;;;;;4975835;28;20315;-76
2022/10/02 00:08:57;;;;;;;0.00;0.00;;;9.90;99.90;;;;;;4988831;28;20283;-76
2022/10/02 00:11:31;;;;;;;0.10;0.10;;;9.90;99.90;;;;;;4988186;28;20204;-76
2022/10/02 00:14:04;;;;;;;0.10;0.10;;;9.90;99.90;;;;;;4980240;28;20231;-76
2022/10/02 00:16:36;;;;;;;0.10;0.10;;;9.80;99.90;;;;;;4974446;28;20556;-76
2022/10/02 00:19:04;;;;;;;0.10;0.10;;;9.90;99.90;;;;;;4993346;28;20254;-76
2022/10/02 00:21:40;;;;;;;0.10;0.10;;;9.80;99.90;;;;;;4970313;28;20200;-76
2022/10/02 00:24:16;;;;;;;0.10;0.10;;;9.80;99.90;;;;;;4980145;28;20394;-76
2022/10/02 00:26:52;;;;;;;0.00;0.00;;;9.80;99.90;;;;;;4962143;28;20621;-76
2022/10/02 00:29:38;;;;;;;0.10;0.10;;;9.80;99.90;;;;;;4982465;28;20201;-76
2022/10/02 00:32:16;;;;;;;0.10;0.10;;;9.80;99.90;;;;;;4974787;28;20204;-76
2022/10/02 00:35:02;;;;;;;0.00;0.00;;;9.80;99.90;;;;;;4977673;28;20221;-76
2022/10/02 00:37:41;;;;;;;0.10;0.10;;;9.80;99.90;;;;;;4981990;28;20678;-76
2022/10/02 00:40:39;;;;;;;0.10;0.10;;;9.80;99.90;;;;;;4978237;28;20274;-76
2022/10/02 00:43:18;;;;;;;0.10;0.10;;;9.80;99.90;;;;;;4984472;28;20201;-76
2022/10/02 00:46:15;;;;;;;0.10;0.10;;;9.80;99.90;;;;;;4980394;28;20525;-76
2022/10/02 00:48:59;;;;;;;0.10;0.10;;;9.80;99.90;;;;;;4989893;28;20200;-76
2022/10/02 00:51:44;;;;;;;0.10;0.10;;;9.80;99.90;;;;;;4975998;28;20208;-76
2022/10/02 00:54:27;;;;;;;0.10;0.10;;;9.90;99.90;;;;;;4980366;28;20641;-76
2022/10/02 00:57:07;;;;;;;0.10;0.10;;;9.90;99.90;;;;;;4971892;28;20263;-76
2022/10/02 00:59:51;;;;;;;0.10;0.10;;;9.90;99.90;;;;;;4963603;28;20205;-76
2022/10/02 01:02:45;;;;;;;0.10;0.10;;;9.80;99.90;;;;;;4959099;28;20266;-77
2022/10/02 01:05:13;;;;;;;0.10;0.10;;;9.80;99.90;;;;;;4967339;28;20218;-76
2022/10/02 01:07:43;;;;;;;0.10;0.10;;;9.80;99.90;;;;;;4985613;28;20693;-77
2022/10/02 01:10:13;;;;;;;0.10;0.10;;;9.80;99.90;;;;;;4994234;28;20196;-77
2022/10/02 01:12:43;;;;;;;0.08;0.08;;;9.80;99.90;;;;;;4985280;28;20721;-77
2022/10/02 01:15:12;;;;;;;0.10;0.10;;;9.70;99.90;;;;;;4987814;28;20707;-77
2022/10/02 01:17:41;;;;;;;0.10;0.10;;;9.70;99.90;;;;;;4989573;28;20204;-76
2022/10/02 01:20:15;;;;;;;0.10;0.10;;;9.70;99.90;;;;;;4971013;28;20499;-77
2022/10/02 01:22:49;;;;;;;0.10;0.10;;;9.70;99.90;;;;;;4964128;28;20734;-76
2022/10/02 01:25:18;;;;;;;0.10;0.10;;;9.70;99.90;;;;;;4987091;28;20291;-76
2022/10/02 01:27:46;;;;;;;0.10;0.10;;;9.70;99.90;;;;;;4985746;28;20201;-77
2022/10/02 01:30:17;;;;;;;0.10;0.10;;;9.70;99.90;;;;;;4992333;28;20192;-77
2022/10/02 01:32:50;;;;;;;0.10;0.10;;;9.80;99.90;;;;;;4968804;28;20680;-76
2022/10/02 01:35:20;;;;;;;0.10;0.10;;;9.80;99.90;;;;;;4983032;28;20341;-77
2022/10/02 01:37:50;;;;;;;0.10;0.10;;;9.70;99.90;;;;;;4983840;28;20196;-76
2022/10/02 01:40:28;;;;;;;0.03;0.03;;;9.80;99.90;;;;;;4991011;28;20671;-77
2022/10/02 01:42:59;;;;;;;0.10;0.10;;;9.80;99.90;;;;;;4992948;28;20188;-77
2022/10/02 01:45:39;;;;;;;0.10;0.10;;;9.80;99.90;;;;;;4975333;28;20209;-77
2022/10/02 01:48:14;;;;;;;0.10;0.10;;;9.70;99.90;;;;;;4954346;29;20670;-77
2022/10/02 01:50:53;;;;;;;0.10;0.10;;;9.70;99.90;;;;;;4955201;28;20193;-77
2022/10/02 01:53:29;;;;;;;0.10;0.10;;;9.70;99.90;;;;;;4983858;28;20220;-77
2022/10/02 01:56:06;;;;;;;0.10;0.10;;;9.70;99.90;;;;;;4985125;28;20258;-77
2022/10/02 01:58:48;;;;;;;0.10;0.10;;;9.80;99.90;;;;;;4993500;28;20204;-77
2022/10/02 02:01:30;;;;;;;0.10;0.10;;;9.80;99.90;;;;;;4979291;28;20208;-77
2022/10/02 02:04:03;;;;;;;0.10;0.10;;;9.80;99.90;;;;;;4983198;28;20790;-77
2022/10/02 02:06:33;;;;;;;0.10;0.10;;;9.80;99.90;;;;;;4973604;28;20222;-77
2022/10/02 02:09:08;;;;;;;0.10;0.10;;;9.80;99.90;;;;;;4959394;28;20197;-77
2022/10/02 02:11:41;;;;;;;0.10;0.10;;;9.80;99.90;;;;;;4976052;28;20208;-77
2022/10/02 02:14:15;;;;;;;0.10;0.10;;;9.80;99.90;;;;;;4992759;28;20220;-77
2022/10/02 02:16:45;;;;;;;0.10;0.10;;;9.80;99.90;;;;;;4980028;28;20200;-77
2022/10/02 02:19:20;;;;;;;0.10;0.10;;;9.80;99.90;;;;;;4966953;28;20219;-76
2022/10/02 02:21:52;;;;;;;0.10;0.10;;;9.80;99.90;;;;;;4986647;28;20208;-77
2022/10/02 02:24:24;;;;;;;0.10;0.10;;;9.80;99.90;;;;;;4976806;28;20944;-77
2022/10/02 02:26:57;;;;;;;0.00;0.00;;;9.80;99.90;;;;;;4971178;28;20629;-77
2022/10/02 02:29:29;;;;;;;0.10;0.10;;;9.80;99.90;;;;;;4988984;28;20208;-77
2022/10/02 02:31:58;;;;;;;0.03;0.03;;;9.80;99.90;;;;;;4962617;28;20199;-76
2022/10/02 02:34:33;;;;;;;0.10;0.10;;;9.80;99.90;;;;;;4957328;28;20893;-76
2022/10/02 02:37:05;;;;;;;0.00;0.00;;;9.80;99.90;;;;;;4991161;28;20208;-76
2022/10/02 02:39:41;;;;;;;0.00;0.00;;;9.80;99.90;;;;;;4994426;28;20206;-76
2022/10/02 02:42:12;;;;;;;0.10;0.10;;;9.80;99.90;;;;;;5003396;28;20235;-76
2022/10/02 02:44:48;;;;;;;0.10;0.10;;;9.80;99.90;;;;;;4999686;28;20232;-76
2022/10/02 02:47:21;;;;;;;0.10;0.10;;;9.80;99.90;;;;;;4977711;28;20232;-76
2022/10/02 02:49:54;;;;;;;0.10;0.10;;;9.80;99.90;;;;;;5001347;28;20212;-76
2022/10/02 02:52:26;;;;;;;0.10;0.10;;;9.80;99.90;;;;;;5000609;28;20207;-76
2022/10/02 02:55:01;;;;;;;0.03;0.03;;;9.80;99.90;;;;;;4983185;28;20777;-76
2022/10/02 02:57:35;;;;;;;0.10;0.10;;;9.90;99.90;;;;;;4967992;28;20198;-76
2022/10/02 03:00:05;;;;;;;0.10;0.10;;;9.80;99.90;;;;;;4983770;28;20247;-76
2022/10/02 03:02:33;;;;;;;0.03;0.03;;;9.90;99.90;;;;;;4975406;28;20201;-76
2022/10/02 03:05:01;;;;;;;0.10;0.10;;;9.90;99.90;;;;;;5006901;23;20761;-76
2022/10/02 03:07:29;;;;;;;0.03;0.03;;;10.00;99.90;;;;;;4967248;28;20554;-76
2022/10/02 03:10:04;;;;;;;0.10;0.10;;;10.00;99.90;;;;;;4953688;29;20249;-76
2022/10/02 03:12:48;;;;;;;0.10;0.10;;;10.00;99.90;;;;;;4953441;28;20255;-76
2022/10/02 03:15:26;;;;;;;0.10;0.10;;;10.00;99.90;;;;;;4954999;28;20218;-75
2022/10/02 03:18:06;;;;;;;0.10;0.10;;;10.00;99.90;;;;;;4952008;28;20240;-76
2022/10/02 03:20:40;;;;;;;0.10;0.10;;;9.90;99.90;;;;;;4956913;28;20259;-78
2022/10/02 03:23:16;;;;;;;0.10;0.10;;;9.90;99.90;;;;;;4963285;28;20259;-77
2022/10/02 03:25:52;;;;;;;0.10;0.10;;;9.90;99.90;;;;;;4968854;28;20231;-77
2022/10/02 03:28:28;;;;;;;0.00;0.00;;;9.90;99.90;;;;;;4973521;28;20223;-75
2022/10/02 03:31:19;;;;;;;0.10;0.10;;;9.80;99.90;;;;;;4944816;29;20684;-77
2022/10/02 03:33:48;;;;;;;0.10;0.10;;;9.70;99.90;;;;;;4946062;29;20261;-76
2022/10/02 03:36:19;;;;;;;0.10;0.10;;;9.70;99.90;;;;;;4963995;28;20205;-76
2022/10/02 03:38:48;;;;;;;0.10;0.10;;;9.60;99.90;;;;;;4971634;28;20232;-76
2022/10/02 03:41:36;;;;;;;0.10;0.10;;;9.60;99.90;;;;;;4963281;28;20287;-77
2022/10/02 03:44:05;;;;;;;0.10;0.10;;;9.60;99.90;;;;;;4973829;28;20739;-76
2022/10/02 03:46:33;;;;;;;0.00;0.00;;;9.60;99.90;;;;;;4963177;28;20212;-76
2022/10/02 03:49:02;;;;;;;0.10;0.10;;;9.60;99.90;;;;;;4974590;28;20229;-76
2022/10/02 03:51:30;;;;;;;0.10;0.10;;;9.50;99.90;;;;;;4951532;28;20740;-76
2022/10/02 03:53:57;;;;;;;0.10;0.10;;;9.50;99.90;;;;;;4945430;29;20214;-77
2022/10/02 03:56:35;;;;;;;0.10;0.10;;;9.50;99.90;;;;;;4938079;29;20246;-77
2022/10/02 03:59:14;;;;;;;0.10;0.10;;;9.50;99.90;;;;;;4934671;29;20219;-77
2022/10/02 04:01:46;;;;;;;0.10;0.10;;;9.50;99.90;;;;;;4934426;29;20245;-77
2022/10/02 04:04:22;;;;;;;0.00;0.00;;;9.50;99.90;;;;;;4917181;29;20232;-77
2022/10/02 04:06:55;;;;;;;0.10;0.10;;;9.50;99.90;;;;;;4935851;29;20190;-76
2022/10/02 04:09:29;;;;;;;0.00;0.00;;;9.60;99.90;;;;;;4945630;29;20198;-77
2022/10/02 04:12:01;;;;;;;0.10;0.10;;;9.60;99.90;;;;;;4943890;29;20192;-76
2022/10/02 04:14:36;;;;;;;0.10;0.10;;;9.60;99.90;;;;;;4954841;29;20229;-77
2022/10/02 04:17:08;;;;;;;0.10;0.10;;;9.70;99.90;;;;;;4945492;28;20193;-77
2022/10/02 04:19:39;;;;;;;0.10;0.10;;;9.70;99.90;;;;;;4955248;29;20264;-77
2022/10/02 04:22:11;;;;;;;0.10;0.10;;;9.70;99.90;;;;;;4961565;28;20206;-77
2022/10/02 04:24:46;;;;;;;0.05;0.05;;;9.80;99.90;;;;;;4955533;28;20226;-75
2022/10/02 04:27:21;;;;;;;0.10;0.10;;;9.80;99.90;;;;;;4975969;28;20618;-76
2022/10/02 04:29:55;;;;;;;0.10;0.10;;;9.90;99.90;;;;;;4963754;28;20194;-76
2022/10/02 04:32:25;;;;;;;0.10;0.10;;;9.90;99.90;;;;;;4950663;29;20202;-79
2022/10/02 04:34:54;;;;;;;0.10;0.10;;;9.90;99.90;;;;;;4958421;28;20220;-77
2022/10/02 04:37:38;;;;;;;0.10;0.10;;;9.90;99.90;;;;;;4964948;28;20201;-77
2022/10/02 04:40:30;;;;;;;0.10;0.10;;;9.90;99.90;;;;;;4969247;28;20672;-77
2022/10/02 04:43:14;;;;;;;0.10;0.10;;;9.90;99.90;;;;;;4975473;28;20800;-76
2022/10/02 04:45:57;;;;;;;0.10;0.10;;;9.90;99.90;;;;;;4976067;28;20221;-75
2022/10/02 04:48:42;;;;;;;0.10;0.10;;;10.00;99.90;;;;;;4975168;28;20587;-76
2022/10/02 04:51:23;;;;;;;0.10;0.10;;;10.00;99.90;;;;;;4975360;28;20216;-77
2022/10/02 04:54:08;;;;;;;0.10;0.10;;;10.00;99.90;;;;;;4975295;28;20197;-76
2022/10/02 04:56:59;;;;;;;0.10;0.10;;;10.00;99.90;;;;;;4968165;28;20212;-76
2022/10/02 04:59:39;;;;;;;0.10;0.10;;;10.00;99.90;;;;;;4975643;28;20194;-76
2022/10/02 05:02:21;;;;;;;0.10;0.10;;;9.90;99.90;;;;;;4960698;28;20189;-77
2022/10/02 05:05:10;;;;;;;0.10;0.10;;;9.90;99.90;;;;;;4963040;28;20225;-76
2022/10/02 05:07:54;;;;;;;0.08;0.08;;;9.90;99.90;;;;;;4974770;28;20217;-77
2022/10/02 05:10:46;;;;;;;0.10;0.10;;;9.80;99.90;;;;;;4944760;29;20234;-76
2022/10/02 05:13:39;;;;;;;0.10;0.10;;;9.80;99.90;;;;;;4950410;28;20650;-76
2022/10/02 05:16:24;;;;;;;0.00;0.00;;;9.80;99.90;;;;;;4949789;28;20209;-77
2022/10/02 05:19:08;;;;;;;0.10;0.10;;;9.80;99.90;;;;;;4969280;28;20712;-76
2022/10/02 05:21:52;;;;;;;0.10;0.10;;;9.90;99.90;;;;;;4971045;28;20671;-76
2022/10/02 05:24:36;;;;;;;0.10;0.10;;;10.00;99.90;;;;;;4953607;28;20224;-76
2022/10/02 05:27:23;;;;;;;0.10;0.10;;;10.00;99.90;;;;;;4966275;28;20683;-76
2022/10/02 05:30:04;;;;;;;0.10;0.10;;;10.00;99.90;;;;;;4948924;28;20206;-78
2022/10/02 05:32:53;;;;;;;0.10;0.10;;;10.10;99.90;;;;;;4969579;28;20205;-76
2022/10/02 05:35:39;;;;;;;0.03;0.03;;;10.10;99.90;;;;;;4948837;28;20651;-76
2022/10/02 05:38:21;;;;;;;0.10;0.10;;;10.20;99.90;;;;;;4930632;28;20424;-77
2022/10/02 05:41:00;;;;;;;0.10;0.10;;;10.20;99.90;;;;;;4947619;28;20249;-76
2022/10/02 05:43:35;;;;;;;0.10;0.10;;;10.30;99.90;;;;;;4935776;29;20721;-76
2022/10/02 05:46:10;;;;;;;0.10;0.10;;;10.30;99.90;;;;;;4943113;28;20220;-75
2022/10/02 05:48:41;;;;;;;0.10;0.10;;;10.30;99.90;;;;;;4974984;28;20228;-75
2022/10/02 05:51:15;;;;;;;0.00;0.00;;;10.40;99.90;;;;;;4938182;28;20741;-75
2022/10/02 05:53:48;;;;;;;0.10;0.10;;;10.40;99.90;;;;;;4940629;29;20209;-75
2022/10/02 05:56:21;;;;;;;0.10;0.10;;;10.40;99.90;;;;;;4960559;28;20227;-74
2022/10/02 05:58:57;;;;;;;0.03;0.03;;;10.50;99.90;;;;;;4988290;28;20202;-74
2022/10/02 06:06:00;;;;;;;0.10;0.10;;;10.60;99.90;;;;;;4968362;28;20235;-75
2022/10/02 06:08:34;;;;;;;0.10;0.10;;;10.70;99.90;;;;;;4978897;28;20288;-75
2022/10/02 06:11:10;;;;;;;0.10;0.10;;;10.70;99.90;;;;;;4962278;28;20277;-75
2022/10/02 06:13:43;;;;;;;0.10;0.10;;;10.70;99.90;;;;;;4964153;29;20201;-75
2022/10/02 06:16:16;;;;;;;0.10;0.10;;;10.80;99.90;;;;;;4944603;28;20238;-75
2022/10/02 06:18:50;;;;;;;0.10;0.10;;;10.90;99.90;;;;;;4975545;28;20683;-74
2022/10/02 06:21:27;;;;;;;0.10;0.10;;;10.90;99.90;;;;;;4979518;28;20209;-74
2022/10/02 06:24:02;;;;;;;0.00;0.00;;;11.00;99.90;;;;;;4969353;28;20201;-74
2022/10/02 06:26:39;;;;;;;0.10;0.10;;;11.00;99.90;;;;;;4979925;28;20219;-76
2022/10/02 06:29:14;;;;;;;0.10;0.10;;;11.10;99.90;;;;;;4982186;28;20217;-74
2022/10/02 06:31:53;;;;;;;0.10;0.10;;;11.10;99.90;;;;;;4965486;28;20208;-76
2022/10/02 06:34:22;;;;;;;0.10;0.10;;;11.10;99.90;;;;;;4940380;29;20221;-76
2022/10/02 06:37:06;;;;;;;0.00;0.00;;;11.20;99.90;;;;;;4958127;28;20197;-76
2022/10/02 06:39:48;;;;;;;0.10;0.10;;;11.20;99.90;;;;;;4969735;28;20197;-76
2022/10/02 06:42:31;;;;;;;0.10;0.10;;;11.30;99.90;;;;;;4957587;28;20198;-76
2022/10/02 06:45:05;;;;;;;0.10;0.10;;;11.30;99.90;;;;;;4955351;28;20711;-76
2022/10/02 06:47:47;;;;;;;0.00;0.00;;;11.40;99.90;;;;;;4980392;28;20204;-76
2022/10/02 06:50:29;;;;;;;0.10;0.10;;;11.40;99.90;;;;;;4967941;28;20230;-76
2022/10/02 06:53:06;;;;;;;0.10;0.10;;;11.40;99.90;;;;;;4943469;29;20198;-76
2022/10/02 06:55:45;;;;;;;0.00;0.00;;;11.40;99.90;;;;;;4960327;28;20229;-76
2022/10/02 06:58:29;;;;;;;0.00;0.00;;;11.50;99.90;;;;;;4979384;28;20193;-76
2022/10/02 07:01:08;;;;;;;0.10;0.10;;;11.50;99.90;;;;;;4975586;28;20207;-76
2022/10/02 07:04:16;;;;;;;0.10;0.10;;;11.50;99.90;;;;;;4984723;28;20201;-76
2022/10/02 07:07:05;;;;;;;0.10;0.10;;;11.60;99.90;;;;;;4983791;28;20213;-76
2022/10/02 07:10:00;;;;;;;0.05;0.05;;;11.70;99.90;;;;;;4975469;28;20224;-76
2022/10/02 07:12:52;;;;;;;0.10;0.10;;;11.70;99.90;;;;;;4935156;29;20212;-76
2022/10/02 07:15:34;;;;;;;0.10;0.10;;;11.80;99.90;;;;;;4944764;29;20609;-76
2022/10/02 07:18:16;;;;;;;0.00;0.00;;;11.80;99.90;;;;;;4968388;28;20201;-76
2022/10/02 07:20:53;;;;;;;0.10;0.10;;;11.90;99.90;;;;;;4985913;28;20205;-76
2022/10/02 07:23:44;;;;;;;0.00;0.00;;;12.00;99.90;;;;;;4954969;28;20205;-76
2022/10/02 07:26:53;;;;;;;0.10;0.10;;;12.00;99.90;;;;;;4983200;28;20228;-76
2022/10/02 07:29:33;;;;;;;0.00;0.00;;;12.10;99.90;;;;;;4924397;29;20234;-77
2022/10/02 07:32:30;;;;;;;0.10;0.10;;;12.10;99.90;;;;;;4947520;29;20205;-77
2022/10/02 07:35:07;;;;;;;0.00;0.00;;;12.20;99.90;;;;;;4952046;28;20228;-77
2022/10/02 07:37:42;;;;;;;0.10;0.10;;;12.20;99.90;;;;;;4957389;28;20233;-76
2022/10/02 07:40:27;;;;;;;0.00;0.00;;;12.30;99.90;;;;;;4969452;28;20202;-76
2022/10/02 07:43:11;;;;;;;0.10;0.10;;;12.30;99.90;;;;;;4987107;28;20208;-77
2022/10/02 07:45:51;;;;;;;0.10;0.10;;;12.40;99.90;;;;;;4980050;28;20217;-77
2022/10/02 07:48:34;;;;;;;0.10;0.10;;;12.40;99.90;;;;;;4984714;28;20197;-76
2022/10/02 07:51:45;;;;;;;0.10;0.10;;;12.40;99.90;;;;;;4974667;28;20209;-76
2022/10/02 07:54:15;;;;;;;0.10;0.10;;;12.40;99.90;;;;;;4962912;28;20247;-76
2022/10/02 07:56:45;;;;;;;0.10;0.10;;;12.50;99.90;;;;;;4957690;28;20300;-76
2022/10/02 07:59:16;;;;;;;0.00;0.00;;;12.50;99.90;;;;;;4962594;28;20206;-76
2022/10/02 08:01:49;;;;;;;0.10;0.10;;;12.60;99.90;;;;;;4956831;29;20252;-77
2022/10/02 08:04:39;;;;;;;0.10;0.10;;;12.60;99.90;;;;;;4949184;28;20602;-77
2022/10/02 08:07:07;;;;;;;0.00;0.00;;;12.60;99.90;;;;;;4956128;28;20676;-75
2022/10/02 08:09:38;;;;;;;0.10;0.10;;;12.60;99.90;;;;;;4951821;29;20705;-75
2022/10/02 08:12:15;;;;;;;0.10;0.10;;;12.70;99.90;;;;;;4949010;29;20197;-76
2022/10/02 08:14:46;;;;;;;0.10;0.10;;;12.80;99.90;;;;;;4941133;28;20276;-75
2022/10/02 08:17:27;;;;;;;0.00;0.00;;;12.90;99.90;;;;;;4964748;28;20215;-75
2022/10/02 08:20:00;;;;;;;0.10;0.10;;;13.10;99.90;;;;;;4945910;28;20195;-76
2022/10/02 08:22:35;;;;;;;0.00;0.00;;;13.20;99.90;;;;;;4973800;28;20229;-76
2022/10/02 08:25:10;;;;;;;0.10;0.10;;;13.20;99.90;;;;;;4963291;28;20219;-76
2022/10/02 08:27:50;;;;;;;0.10;0.10;;;13.20;99.90;;;;;;4953571;28;20641;-76
2022/10/02 08:30:18;;;;;;;0.00;0.00;;;13.20;99.90;;;;;;4946312;29;20214;-76
2022/10/02 08:32:48;;;;;;;0.10;0.10;;;13.30;99.90;;;;;;4946154;29;20665;-76
2022/10/02 08:35:18;;;;;;;0.03;0.03;;;13.30;99.90;;;;;;4949435;28;20708;-76
2022/10/02 08:38:11;;;;;;;0.10;0.10;;;13.30;99.90;;;;;;4953204;28;20189;-76
2022/10/02 08:41:16;;;;;;;0.00;0.00;;;13.30;99.90;;;;;;4950212;28;20203;-76
2022/10/02 08:44:22;;;;;;;0.10;0.10;;;13.40;99.90;;;;;;4948311;28;20197;-76
2022/10/02 08:47:27;;;;;;;0.10;0.10;;;13.40;99.90;;;;;;4954722;28;20206;-76
2022/10/02 08:50:18;;;;;;;0.00;0.00;;;13.40;99.90;;;;;;4945364;29;20583;-75
2022/10/02 08:53:27;;;;;;;0.00;0.00;;;13.50;99.90;;;;;;4952384;28;20201;-78
2022/10/02 08:56:12;;;;;;;0.10;0.10;;;13.50;99.90;;;;;;4944282;28;20240;-78
2022/10/02 08:59:25;;;;;;;0.00;0.00;;;13.60;99.90;;;;;;4972597;28;20205;-77
2022/10/02 09:02:39;;;;;;;0.00;0.00;;;13.70;99.90;;;;;;4921911;29;20554;-78
2022/10/02 09:05:38;;;;;;;0.00;0.00;;;13.70;99.90;;;;;;4956146;28;20823;-78
2022/10/02 09:08:37;;;;;;;0.10;0.10;;;13.80;99.90;;;;;;4961916;28;20209;-77
2022/10/02 09:11:43;;;;;;;0.10;0.10;;;13.80;99.90;;;;;;4959434;28;20222;-78
2022/10/02 09:14:47;;;;;;;0.00;0.00;;;13.80;99.90;;;;;;4969323;28;20619;-78
2022/10/02 09:17:47;;;;;;;0.10;0.10;;;13.80;99.90;;;;;;4955316;28;20201;-80
2022/10/02 09:20:48;;;;;;;0.10;0.10;;;13.80;99.90;;;;;;4948568;28;20259;-78
2022/10/02 09:23:46;;;;;;;0.03;0.03;;;13.70;99.90;;;;;;4952430;28;20621;-77
2022/10/02 09:26:25;;;;;;;0.00;0.00;;;13.70;99.90;;;;;;4956712;28;20205;-78
2022/10/02 09:29:36;;;;;;;0.00;0.00;;;13.70;99.90;;;;;;4966150;28;20602;-78
2022/10/02 09:32:42;;;;;;;0.10;0.10;;;13.60;99.90;;;;;;4928291;29;20208;-78
2022/10/02 09:35:58;;;;;;;0.00;0.00;;;13.60;99.90;;;;;;4953904;28;20569;-78
2022/10/02 09:39:02;;;;;;;0.00;0.00;;;13.70;99.90;;;;;;4948989;29;20265;-77
2022/10/02 09:42:07;;;;;;;0.10;0.10;;;13.60;99.90;;;;;;4961643;28;20678;-78
2022/10/02 09:45:06;;;;;;;0.10;0.10;;;13.70;99.90;;;;;;4961599;28;20260;-78
2022/10/02 09:48:10;;;;;;;0.10;0.10;;;13.70;99.90;;;;;;4960768;28;20202;-79
2022/10/02 09:51:15;;;;;;;0.00;0.00;;;13.80;99.90;;;;;;4970703;28;20229;-77
2022/10/02 09:54:20;;;;;;;0.10;0.10;;;13.80;99.90;;;;;;4950181;29;20620;-78
2022/10/02 09:57:21;;;;;;;0.00;0.00;;;13.80;99.90;;;;;;4956767;28;20208;-78
2022/10/02 10:00:10;;;;;;;0.00;0.00;;;13.90;99.90;;;;;;4888723;28;20217;-77
2022/10/02 10:03:11;;;;;;;0.00;0.00;;;13.90;99.90;;;;;;4962073;29;20204;-79
2022/10/02 10:06:02;;;;;;;0.10;0.10;;;13.90;99.90;;;;;;4969721;28;20233;-79
2022/10/02 10:08:51;;;;;;;0.10;0.10;;;13.80;99.90;;;;;;4941847;29;20221;-79
2022/10/02 10:12:07;;;;;;;0.00;0.00;;;13.80;99.90;;;;;;4966665;28;20216;-77
2022/10/02 10:15:19;;;;;;;0.10;0.10;;;13.80;99.90;;;;;;4961097;28;20236;-77
2022/10/02 10:18:25;;;;;;;0.10;0.10;;;13.80;99.90;;;;;;4981910;28;20205;-77
2022/10/02 10:21:33;;;;;;;0.00;0.00;;;13.80;99.90;;;;;;4973821;28;20260;-77
2022/10/02 10:24:49;;;;;;;0.10;0.10;;;13.70;99.90;;;;;;4927747;28;20786;-80
2022/10/02 10:28:00;;;;;;;0.10;0.10;;;13.60;99.90;;;;;;4907797;29;20217;-78
2022/10/02 10:30:54;;;;;;;0.10;0.10;;;13.70;99.90;;;;;;4931319;29;20328;-79
2022/10/02 10:34:14;;;;;;;0.10;0.10;;;13.60;99.90;;;;;;4952077;29;20213;-78
2022/10/02 10:40:08;;;;;;;0.10;0.10;;;13.50;99.90;;;;;;4967269;28;20272;-78
2022/10/02 10:43:06;;;;;;;0.00;0.00;;;13.50;99.90;;;;;;4943199;29;20613;-79
2022/10/02 10:45:57;;;;;;;0.00;0.00;;;13.40;99.90;;;;;;4954328;28;20224;-78
2022/10/02 10:48:44;;;;;;;0.10;0.10;;;13.40;99.90;;;;;;4968167;28;20223;-78
2022/10/02 10:51:29;;;;;;;0.00;0.00;;;13.40;99.90;;;;;;4934800;29;20230;-78
2022/10/02 10:54:39;;;;;;;0.00;0.00;;;13.40;99.90;;;;;;4943374;28;20259;-78
2022/10/02 10:57:17;;;;;;;0.10;0.10;;;13.40;99.90;;;;;;4959611;28;20204;-78
2022/10/02 11:00:02;;;;;;;0.10;0.10;;;13.40;99.90;;;;;;4970520;28;20207;-78
2022/10/02 11:03:05;;;;;;;0.10;0.10;;;13.40;99.90;;;;;;4953263;28;20656;-77
2022/10/02 11:06:21;;;;;;;0.10;0.10;;;13.50;99.90;;;;;;4963015;28;20639;-82
2022/10/02 11:09:27;;;;;;;0.00;0.00;;;13.50;99.90;;;;;;4971089;28;20220;-81
2022/10/02 11:12:27;;;;;;;0.00;0.00;;;13.60;99.90;;;;;;4979557;28;20227;-79
2022/10/02 11:15:22;;;;;;;0.10;0.10;;;13.60;99.90;;;;;;4950969;28;20226;-79
2022/10/02 11:18:05;;;;;;;0.00;0.00;;;13.60;99.90;;;;;;4977012;28;20217;-78
2022/10/02 11:20:50;;;;;;;0.00;0.00;;;13.70;99.90;;;;;;4956230;29;20217;-79
2022/10/02 11:23:39;;;;;;;0.00;0.00;;;13.70;99.90;;;;;;4960453;28;20210;-79
2022/10/02 11:26:25;;;;;;;0.00;0.00;;;13.70;99.90;;;;;;4964352;28;20718;-80
2022/10/02 11:29:16;;;;;;;0.05;0.05;;;13.80;99.90;;;;;;4946609;29;20205;-81
2022/10/02 11:32:01;;;;;;;0.00;0.00;;;13.80;99.90;;;;;;4962519;29;20292;-80
2022/10/02 11:34:46;;;;;;;0.10;0.10;;;13.70;99.90;;;;;;4956302;28;20251;-80
2022/10/02 11:37:25;;;;;;;0.00;0.00;;;13.80;99.90;;;;;;4975727;28;20196;-80
2022/10/02 11:40:12;;;;;;;0.10;0.10;;;13.80;99.90;;;;;;4957332;28;20209;-78
2022/10/02 11:43:10;;;;;;;0.00;0.00;;;13.90;99.90;;;;;;4961748;28;20604;-79
2022/10/02 11:46:00;;;;;;;0.00;0.00;;;13.90;99.90;;;;;;4969203;28;20271;-79
2022/10/02 11:48:51;;;;;;;0.00;0.00;;;14.00;99.90;;;;;;4994878;28;20215;-79
2022/10/02 11:51:45;;;;;;;0.00;0.00;;;14.00;99.90;;;;;;4994421;28;20621;-81
2022/10/02 11:54:37;;;;;;;0.00;0.00;;;14.10;99.90;;;;;;4990076;28;20248;-81
2022/10/02 11:57:37;;;;;;;0.00;0.00;;;14.10;99.90;;;;;;4969037;28;20201;-77
2022/10/02 12:00:34;;;;;;;0.00;0.00;;;14.20;99.90;;;;;;4980390;28;20240;-79
2022/10/02 12:03:13;;;;;;;0.00;0.00;;;14.20;99.90;;;;;;4976106;28;20679;-77
2022/10/02 12:05:54;;;;;;;0.00;0.00;;;14.20;99.90;;;;;;4973129;28;20241;-79
2022/10/02 12:08:41;;;;;;;0.00;0.00;;;14.20;99.90;;;;;;4965218;29;20221;-78
2022/10/02 12:11:14;;;;;;;0.05;0.05;;;14.20;99.90;;;;;;4968578;28;20209;-79
2022/10/02 12:13:58;;;;;;;0.00;0.00;;;14.20;99.90;;;;;;4952551;28;20666;-79
2022/10/02 12:16:39;;;;;;;0.10;0.10;;;14.30;99.90;;;;;;4954428;28;20213;-79
2022/10/02 12:19:28;;;;;;;0.00;0.00;;;14.30;99.90;;;;;;4971902;28;20240;-79
2022/10/02 12:28:09;;;;;;;0.00;0.00;;;14.30;99.90;;;;;;4965177;28;20212;-78
2022/10/02 12:30:42;;;;;;;0.10;0.10;;;14.30;99.90;;;;;;4973336;28;20537;-78
2022/10/02 12:33:25;;;;;;;0.00;0.00;;;14.40;99.90;;;;;;4975658;28;20221;-79
2022/10/02 12:36:12;;;;;;;0.00;0.00;;;14.50;99.90;;;;;;4949514;28;20216;-79
2022/10/02 12:38:55;;;;;;;0.00;0.00;;;14.50;99.90;;;;;;4968720;28;20212;-79
2022/10/02 12:41:40;;;;;;;0.08;0.08;;;14.50;99.90;;;;;;4941558;28;20257;-79
2022/10/02 12:44:35;;;;;;;0.00;0.00;;;14.60;99.90;;;;;;4955905;28;20221;-78
2022/10/02 12:47:34;;;;;;;0.03;0.03;;;14.50;99.90;;;;;;4960445;28;20680;-78
2022/10/02 12:50:20;;;;;;;0.00;0.00;;;14.60;99.90;;;;;;4961881;28;20217;-79
2022/10/02 12:53:13;;;;;;;0.00;0.00;;;14.70;99.90;;;;;;4962924;28;20226;-78
2022/10/02 12:56:13;;;;;;;0.00;0.00;;;14.70;99.90;;;;;;4964535;28;20221;-78
2022/10/02 12:58:58;;;;;;;0.00;0.00;;;14.70;99.90;;;;;;4962319;28;20209;-79
2022/10/02 13:01:51;;;;;;;0.00;0.00;;;14.80;99.90;;;;;;4975972;28;20248;-79
2022/10/02 13:04:50;;;;;;;0.00;0.00;;;14.80;99.90;;;;;;4961762;28;20248;-79
2022/10/02 13:07:51;;;;;;;0.00;0.00;;;14.80;99.90;;;;;;4968030;28;20213;-79
2022/10/02 13:10:24;;;;;;;0.00;0.00;;;14.70;99.90;;;;;;4967585;28;20251;-79
2022/10/02 13:13:11;;;;;;;0.00;0.00;;;14.70;99.90;;;;;;4960397;28;20240;-80
2022/10/02 13:15:44;;;;;;;0.00;0.00;;;14.70;99.90;;;;;;4953308;28;20284;-79
2022/10/02 13:18:42;;;;;;;0.00;0.00;;;14.70;99.90;;;;;;4975676;28;20201;-79
2022/10/02 13:21:19;;;;;;;0.00;0.00;;;14.60;99.90;;;;;;4963358;28;20651;-79
2022/10/02 13:23:58;;;;;;;0.00;0.00;;;14.60;99.90;;;;;;4964995;28;20209;-78
2022/10/02 13:26:36;;;;;;;0.00;0.00;;;14.70;99.90;;;;;;4943420;29;20220;-79
2022/10/02 13:29:28;;;;;;;0.00;0.00;;;14.70;99.90;;;;;;4957887;29;20205;-78
2022/10/02 13:32:15;;;;;;;0.00;0.00;;;14.70;99.90;;;;;;4959166;28;20216;-79
2022/10/02 13:35:00;;;;;;;0.00;0.00;;;14.80;99.90;;;;;;4963801;28;20655;-79
2022/10/02 13:37:40;;;;;;;0.00;0.00;;;14.90;99.90;;;;;;4953053;28;20545;-80
2022/10/02 13:40:29;;;;;;;0.00;0.00;;;14.90;99.90;;;;;;4980091;28;20207;-79
2022/10/02 13:43:28;;;;;;;0.03;0.03;;;14.90;99.90;;;;;;4978248;28;20202;-79
2022/10/02 13:46:05;;;;;;;0.00;0.00;;;15.00;99.90;;;;;;4969040;28;20283;-78
2022/10/02 13:48:53;;;;;;;0.00;0.00;;;15.00;99.90;;;;;;4959978;28;20205;-79
2022/10/02 13:51:26;;;;;;;0.00;0.00;;;15.10;99.90;;;;;;4959471;28;20197;-79
2022/10/02 13:54:22;;;;;;;0.10;0.10;;;15.20;99.90;;;;;;4955970;29;20193;-78
2022/10/02 13:57:01;;;;;;;0.03;0.03;;;15.40;99.90;;;;;;4962651;28;20272;-77
2022/10/02 13:59:44;;;;;;;0.10;0.10;;;15.40;99.90;;;;;;4941306;28;20210;-78
2022/10/02 14:02:29;;;;;;;0.00;0.00;;;15.30;99.90;;;;;;4948482;29;20542;-78
2022/10/02 14:05:03;;;;;;;0.00;0.00;;;15.30;99.90;;;;;;4954320;28;20275;-79
2022/10/02 14:07:48;;;;;;;0.00;0.00;;;15.30;99.90;;;;;;4958396;28;20210;-78
2022/10/02 14:10:27;;;;;;;0.08;0.08;;;15.20;99.90;;;;;;4936529;29;20241;-78
2022/10/02 14:13:15;;;;;;;0.00;0.00;;;15.20;99.90;;;;;;4942937;28;20218;-78
2022/10/02 14:16:01;;;;;;;0.00;0.00;;;15.20;99.90;;;;;;4967860;28;20703;-78
2022/10/02 14:18:45;;;;;;;0.00;0.00;;;15.10;99.90;;;;;;4964378;28;20521;-79
2022/10/02 14:21:24;;;;;;;0.00;0.00;;;14.90;99.90;;;;;;4945894;29;20264;-79
2022/10/02 14:24:07;;;;;;;0.00;0.00;;;14.70;99.90;;;;;;4946145;28;20209;-79
2022/10/02 14:26:52;;;;;;;0.10;0.10;;;14.60;99.90;;;;;;4952370;28;20221;-79